Terminal Aerodrome Forecast
Issued by NWS Cleveland, OH

Home | Current Version | Previous Version | Text Only | Print | Product List | Glossary Off
Versions: 1 2 3 4 5 6 7 8 9 10 11 12 13 14 15 16 17 18 19 20

307
FTUS41 KCLE 031139
TAFERI
TAF
KERI 031139Z 0312/0412 28010G18KT P6SM VCSH OVC022
     FM031600 28010KT P6SM OVC022
     FM040400 VRB04KT P6SM OVC020=

USA.gov is the U.S. government's official web portal to all federal, state and local government web resources and services.